Time;durP1;ratioP1;P1;durP2;ratioP2;P2;SDS_P1;SDS_P2;PMS_P1;PMS_P2;Temp;Humidity;BMP_temperature;BMP_pressure;BME280_temperature;BME280_humidity;BME280_pressure;Samples;Min_cycle;Max_cycle;Signal;HPM_P1;HPM_P2
2023/10/25 00:02:50;;;;;;;10.32;5.50;;;;;;;8.44;100.00;100137.56;5953199;24;20057;-96
2023/10/25 00:31:01;;;;;;;9.30;5.20;;;;;;;8.20;100.00;100128.41;5898190;24;20027;-95
2023/10/25 00:37:01;;;;;;;7.22;4.60;;;;;;;8.15;100.00;100135.22;6007765;23;20055;-95
2023/10/25 00:50:29;;;;;;;9.93;4.82;;;;;;;8.07;100.00;100136.78;6010980;23;20339;-94
2023/10/25 01:15:01;;;;;;;9.23;4.32;;;;;;;7.98;100.00;100106.28;6157469;23;20056;-95
2023/10/25 01:38:02;;;;;;;7.65;3.78;;;;;;;7.95;100.00;100085.47;6038723;23;20038;-95
2023/10/25 01:41:16;;;;;;;;;;;;;;;;;;;;;
2023/10/25 02:08:00;;;;;;;6.28;3.00;;;;;;;7.77;100.00;100045.34;6157270;23;20187;-95
2023/10/25 02:31:02;;;;;;;8.13;3.45;;;;;;;8.01;100.00;100020.78;6157026;23;20063;-95
2023/10/25 02:41:01;;;;;;;8.82;2.97;;;;;;;8.05;100.00;100013.91;6096246;23;20066;-95
2023/10/25 03:01:28;;;;;;;;;;;;;;;;;;;;;
2023/10/25 03:18:02;;;;;;;8.38;4.40;;;;;;;7.90;100.00;99957.41;6031166;23;20525;-95
2023/10/25 03:52:01;;;;;;;6.32;4.30;;;;;;;7.95;100.00;99930.72;6095874;23;20014;-96
2023/10/25 03:55:01;;;;;;;8.38;4.53;;;;;;;7.98;100.00;99923.00;6065933;23;20097;-95
2023/10/25 04:08:40;;;;;;;;;;;;;;;;;;;;;
2023/10/25 04:25:03;;;;;;;11.45;5.45;;;;;;;8.04;100.00;99918.75;5933396;24;20047;-95
2023/10/25 04:35:12;;;;;;;;;;;;;;;;;;;;;
2023/10/25 04:46:04;;;;;;;9.45;4.72;;;;;;;8.16;100.00;99903.44;5980220;23;20452;-96
2023/10/25 04:49:08;;;;;;;10.55;4.80;;;;;;;8.19;100.00;99888.78;5945552;24;20009;-95
2023/10/25 04:55:49;;;;;;;;;;;;;;;;;;;;;
2023/10/25 05:09:01;;;;;;;11.10;4.55;;;;;;;8.18;100.00;99860.22;5979292;23;20036;-95
2023/10/25 05:19:01;;;;;;;9.88;4.88;;;;;;;8.17;100.00;99854.16;6007746;23;20694;-95
2023/10/25 06:17:58;;;;;;;;;;;;;;;;;;;;;
2023/10/25 06:21:01;;;;;;;8.07;4.80;;;;;;;8.24;100.00;99786.78;6024989;23;20074;-95
2023/10/25 06:24:23;;;;;;;;;;;;;;;;;;;;;
2023/10/25 06:28:01;;;;;;;;;;;;;;;;;;;;;
2023/10/25 06:41:13;;;;;;;;;;;;;;;;;;;;;
2023/10/25 06:58:10;;;;;;;;;;;;;;;;;;;;;
2023/10/25 07:08:00;;;;;;;7.70;3.90;;;;;;;8.40;100.00;99718.72;6037294;23;20484;-95
2023/10/25 07:17:49;;;;;;;;;;;;;;;;;;;;;
2023/10/25 07:38:55;;;;;;;6.30;3.60;;;;;;;8.63;100.00;99694.78;6004394;23;20027;-95
2023/10/25 08:02:02;;;;;;;9.73;4.93;;;;;;;8.74;100.00;99638.66;5954628;23;20467;-96
2023/10/25 09:58:00;;;;;;;11.90;6.60;;;;;;;9.05;100.00;99484.00;5872087;24;20530;-96
2023/10/25 10:54:07;;;;;;;;;;;;;;;;;;;;;
2023/10/25 11:09:29;;;;;;;14.32;8.27;;;;;;;9.16;100.00;99330.72;6215738;23;20032;-96
2023/10/25 11:12:11;;;;;;;13.25;7.30;;;;;;;9.19;100.00;99330.75;6190460;23;20478;-96
2023/10/25 11:14:49;;;;;;;13.63;7.55;;;;;;;9.20;100.00;99321.22;6193861;23;20043;-96
2023/10/25 11:17:26;;;;;;;11.98;8.10;;;;;;;9.20;100.00;99324.69;6204445;23;20004;-96
2023/10/25 11:19:55;;;;;;;14.13;8.07;;;;;;;9.21;100.00;99310.84;6207028;23;20064;-96
2023/10/25 11:22:30;;;;;;;11.57;6.97;;;;;;;9.21;100.00;99315.16;6231179;23;20004;-96
2023/10/25 11:25:10;;;;;;;9.38;5.90;;;;;;;9.23;100.00;99310.84;6229515;23;20027;-96
2023/10/25 11:27:56;;;;;;;;;;;;;;;9.23;100.00;99306.50;6208344;23;20016;-96
2023/10/25 11:30:34;;;;;;;;;;;;;;;;;;;;;
2023/10/25 11:33:26;;;;;;;10.10;5.67;;;;;;;9.28;100.00;99287.47;6286416;22;20431;-96
2023/10/25 11:36:01;;;;;;;10.50;5.97;;;;;;;9.30;100.00;99283.13;6258732;22;20014;-96
2023/10/25 11:41:39;;;;;;;11.30;6.22;;;;;;;9.34;100.00;99266.69;6256105;22;20012;-96
2023/10/25 11:44:22;;;;;;;8.38;5.40;;;;;;;9.35;100.00;99271.88;6260164;22;20007;-96
2023/10/25 11:47:01;;;;;;;12.48;7.00;;;;;;;9.38;100.00;99268.44;6261625;22;20011;-96
2023/10/25 11:49:40;;;;;;;9.65;6.32;;;;;;;9.35;100.00;99266.69;6263068;22;20000;-96
2023/10/25 11:52:12;;;;;;;9.55;6.03;;;;;;;9.35;100.00;99264.09;6261435;22;20011;-96
2023/10/25 11:54:41;;;;;;;11.88;6.75;;;;;;;9.38;100.00;99252.84;6264555;22;20034;-96
2023/10/25 11:57:15;;;;;;;9.27;6.33;;;;;;;9.41;100.00;99245.03;6262587;22;20004;-96
2023/10/25 11:59:41;;;;;;;11.10;5.93;;;;;;;9.43;100.00;99248.53;6258413;22;20008;-96
2023/10/25 12:05:03;;;;;;;11.45;6.03;;;;;;;9.46;100.00;99229.44;6290729;22;20061;-96
2023/10/25 12:07:41;;;;;;;9.50;6.50;;;;;;;9.47;100.00;99232.09;6265971;22;19999;-96
2023/10/25 12:10:10;;;;;;;12.10;6.78;;;;;;;9.50;100.00;99226.88;6265745;22;20035;-96
2023/10/25 12:13:00;;;;;;;10.65;6.63;;;;;;;9.51;100.00;99222.53;6269466;22;20024;-96
2023/10/25 12:15:28;;;;;;;10.35;6.20;;;;;;;9.52;100.00;99222.53;6266649;22;20007;-96
2023/10/25 12:17:59;;;;;;;12.52;6.60;;;;;;;9.55;100.00;99214.75;6266033;22;20016;-96
2023/10/25 12:20:37;;;;;;;13.10;6.68;;;;;;;9.55;100.00;99217.34;6264358;22;20004;-96
2023/10/25 12:23:12;;;;;;;9.82;6.30;;;;;;;9.55;100.00;99209.53;6267408;22;20007;-96
2023/10/25 12:25:40;;;;;;;9.93;6.38;;;;;;;9.54;100.00;99199.13;6266218;22;20004;-96
2023/10/25 12:28:19;;;;;;;10.93;6.72;;;;;;;9.57;100.00;99202.63;6267567;22;20454;-96
2023/10/25 12:30:50;;;;;;;9.52;6.63;;;;;;;9.59;100.00;99200.03;6269638;22;20016;-96
2023/10/25 12:33:27;;;;;;;10.60;6.53;;;;;;;9.61;100.00;99194.81;6289606;22;20028;-96
2023/10/25 12:36:00;;;;;;;9.07;6.35;;;;;;;9.62;100.00;99192.22;6290215;22;20065;-96
2023/10/25 12:38:39;;;;;;;10.52;6.63;;;;;;;9.63;100.00;99190.47;6262888;22;20004;-96
2023/10/25 12:41:32;;;;;;;9.52;6.80;;;;;;;9.70;100.00;99187.03;6263104;22;20090;-96
2023/10/25 12:44:12;;;;;;;11.88;7.25;;;;;;;9.67;100.00;99185.28;6290532;22;20054;-96
2023/10/25 12:46:55;;;;;;;9.18;6.13;;;;;;;9.73;100.00;99181.81;6257706;22;20004;-96
2023/10/25 12:49:21;;;;;;;10.45;6.18;;;;;;;9.71;100.00;99176.63;6263105;22;20000;-96
2023/10/25 12:51:54;;;;;;;10.93;6.53;;;;;;;9.75;100.00;99174.91;6261671;22;20003;-96
2023/10/25 12:54:20;;;;;;;9.38;6.38;;;;;;;9.77;100.00;99175.75;6260545;22;20003;-96
2023/10/25 12:56:52;;;;;;;10.30;6.35;;;;;;;9.78;100.00;99167.09;6261074;22;20003;-96
2023/10/25 12:59:24;;;;;;;10.45;7.07;;;;;;;9.82;100.00;99163.63;6260438;22;20118;-96
2023/10/25 13:01:56;;;;;;;8.98;5.90;;;;;;;9.84;100.00;99159.28;6259522;22;20015;-96
2023/10/25 13:04:50;;;;;;;10.57;7.03;;;;;;;9.87;100.00;99159.25;6261290;22;20019;-96
2023/10/25 13:07:34;;;;;;;10.48;6.70;;;;;;;9.89;100.00;99161.88;6260445;22;20004;-96
2023/10/25 13:10:00;;;;;;;9.90;6.22;;;;;;;9.90;100.00;99159.25;6262232;22;20008;-96
2023/10/25 13:12:35;;;;;;;13.32;6.97;;;;;;;9.92;100.00;99147.13;6263272;22;20079;-96
2023/10/25 13:15:00;;;;;;;11.45;7.18;;;;;;;9.95;100.00;99146.28;6290156;22;20003;-96
2023/10/25 13:17:38;;;;;;;11.38;7.28;;;;;;;9.96;100.00;99144.53;6263844;22;20018;-96
2023/10/25 13:20:08;;;;;;;11.43;7.57;;;;;;;9.97;100.00;99138.47;6263834;22;20014;-96
2023/10/25 13:22:53;;;;;;;10.32;7.75;;;;;;;9.96;100.00;99131.50;6264864;22;20445;-96
2023/10/25 13:25:28;;;;;;;13.30;7.70;;;;;;;9.97;100.00;99133.25;6268368;22;20497;-96
2023/10/25 13:28:02;;;;;;;9.18;5.78;;;;;;;9.97;100.00;99128.06;6267767;22;20000;-96
2023/10/25 13:30:59;;;;;;;10.32;7.38;;;;;;;9.99;100.00;99126.31;6295393;22;20007;-96
2023/10/25 13:33:33;;;;;;;10.43;7.68;;;;;;;10.01;100.00;99127.19;6247125;22;20016;-96
2023/10/25 13:36:02;;;;;;;12.05;7.75;;;;;;;10.00;100.00;99120.25;6268428;22;20006;-96
2023/10/25 13:38:31;;;;;;;10.10;7.20;;;;;;;9.99;100.00;99126.31;6266664;22;20000;-96
2023/10/25 13:41:19;;;;;;;9.77;7.47;;;;;;;9.98;100.00;99124.56;6268274;22;20008;-96
2023/10/25 13:43:48;;;;;;;12.35;7.47;;;;;;;9.99;100.00;99119.34;6269990;22;20004;-96
2023/10/25 13:46:17;;;;;;;12.03;7.73;;;;;;;10.00;100.00;99125.44;6271082;22;20003;-96
2023/10/25 13:48:54;;;;;;;10.82;6.90;;;;;;;9.98;100.00;99125.44;6270893;22;20270;-96
2023/10/25 13:51:28;;;;;;;12.73;7.82;;;;;;;10.00;100.00;99128.03;6269586;22;20004;-96
2023/10/25 13:54:02;;;;;;;12.48;8.20;;;;;;;10.00;100.00;99118.50;6267909;22;20008;-96
2023/10/25 13:56:38;;;;;;;11.05;8.05;;;;;;;10.00;100.00;99117.63;6267937;22;20006;-96
2023/10/25 13:59:21;;;;;;;11.93;8.82;;;;;;;10.02;100.00;99121.09;6266142;22;20478;-96
2023/10/25 14:01:52;;;;;;;12.93;8.73;;;;;;;9.99;100.00;99115.91;6268066;22;20049;-96
2023/10/25 14:04:27;;;;;;;10.75;8.45;;;;;;;9.98;100.00;99111.56;6266856;22;20059;-96
2023/10/25 14:06:52;;;;;;;11.38;9.13;;;;;;;9.97;100.00;99110.69;6267316;22;20004;-96
2023/10/25 14:09:24;;;;;;;12.82;8.85;;;;;;;9.97;100.00;99108.09;6266915;22;20428;-96
2023/10/25 14:11:49;;;;;;;12.82;9.50;;;;;;;9.98;100.00;99104.63;6266154;22;20014;-96
2023/10/25 14:14:34;;;;;;;12.20;9.20;;;;;;;9.99;100.00;99106.34;6269950;22;20031;-96
2023/10/25 14:17:02;;;;;;;11.90;9.07;;;;;;;9.97;100.00;99097.69;6270440;22;20003;-96
2023/10/25 14:19:46;;;;;;;11.98;9.20;;;;;;;9.98;100.00;99098.53;6269017;22;19999;-96
2023/10/25 14:22:21;;;;;;;12.43;9.52;;;;;;;9.97;100.00;99096.84;6268523;22;20019;-96
2023/10/25 14:24:48;;;;;;;11.80;8.57;;;;;;;9.97;100.00;99086.44;6262471;22;20014;-96
2023/10/25 14:27:31;;;;;;;11.88;9.18;;;;;;;9.96;100.00;99084.69;6265294;22;20004;-96
2023/10/25 14:30:01;;;;;;;11.63;8.32;;;;;;;9.98;100.00;99090.72;6265447;22;20011;-96
2023/10/25 14:32:36;;;;;;;12.40;8.82;;;;;;;9.99;100.00;99095.06;6256514;23;20012;-96
2023/10/25 14:35:01;;;;;;;12.68;8.85;;;;;;;10.00;100.00;99091.63;6255686;23;20000;-96
2023/10/25 14:37:33;;;;;;;11.23;8.68;;;;;;;9.99;100.00;99080.31;6231400;23;20014;-96
2023/10/25 14:40:01;;;;;;;16.48;13.57;;;;;;;9.99;100.00;99080.31;6254707;23;20004;-96
2023/10/25 14:42:55;;;;;;;11.07;8.40;;;;;;;10.00;100.00;99086.41;6230366;23;20008;-96
2023/10/25 14:45:45;;;;;;;10.23;7.63;;;;;;;10.01;100.00;99089.00;6226246;23;20000;-96
2023/10/25 14:48:11;;;;;;;9.30;7.50;;;;;;;9.99;100.00;99084.66;6232712;23;20019;-96
2023/10/25 14:50:39;;;;;;;10.30;7.97;;;;;;;9.99;100.00;99079.47;6205598;22;20017;-96
2023/10/25 14:53:13;;;;;;;10.25;7.93;;;;;;;10.01;100.00;99085.56;6155402;23;20006;-96
2023/10/25 14:55:41;;;;;;;11.02;7.60;;;;;;;10.02;100.00;99077.75;6153818;23;20002;-96
2023/10/25 14:58:12;;;;;;;14.55;8.63;;;;;;;10.04;100.00;99077.72;6131350;23;20005;-95
2023/10/25 15:00:40;;;;;;;9.98;7.72;;;;;;;10.03;100.00;99079.44;6154248;23;20017;-96
2023/10/25 15:03:22;;;;;;;10.55;7.82;;;;;;;10.04;100.00;99078.59;6155984;23;20092;-96
2023/10/25 15:05:52;;;;;;;9.80;7.43;;;;;;;10.05;100.00;99076.84;6131236;23;20443;-96
2023/10/25 15:08:44;;;;;;;10.65;7.68;;;;;;;10.06;100.00;99078.59;6155895;23;20010;-96
2023/10/25 15:11:15;;;;;;;12.02;7.90;;;;;;;10.07;100.00;99075.13;6155109;23;20006;-96
2023/10/25 15:13:43;;;;;;;10.43;8.05;;;;;;;10.06;100.00;99078.59;6143686;22;20198;-95
2023/10/25 15:16:13;;;;;;;10.32;7.85;;;;;;;10.08;100.00;99082.06;6197203;23;20139;-95
2023/10/25 15:18:44;;;;;;;12.23;9.75;;;;;;;10.09;100.00;99078.56;6220415;23;20138;-95
2023/10/25 15:21:42;;;;;;;11.90;8.00;;;;;;;10.09;100.00;99079.47;6245251;23;20004;-95
2023/10/25 15:24:15;;;;;;;67.50;51.88;;;;;;;10.12;100.00;99078.56;6245768;22;20004;-95
2023/10/25 15:26:44;;;;;;;21.50;16.92;;;;;;;10.11;100.00;99079.44;6220479;23;20427;-96
2023/10/25 15:29:27;;;;;;;12.43;9.65;;;;;;;10.13;100.00;99080.28;6221089;23;20003;-96
2023/10/25 15:50:01;;;;;;;10.48;8.23;;;;;;;10.23;100.00;99081.13;6263743;22;20023;-96
2023/10/25 15:55:26;;;;;;;9.60;7.57;;;;;;;10.26;100.00;99076.78;6271217;22;20003;-96
2023/10/25 15:57:55;;;;;;;9.90;7.70;;;;;;;10.25;100.00;99072.47;6249215;22;20086;-96
2023/10/25 16:00:29;;;;;;;10.57;8.18;;;;;;;10.25;100.00;99080.28;6249890;22;20007;-96
2023/10/25 16:02:57;;;;;;;10.80;8.05;;;;;;;10.26;100.00;99079.38;6249823;22;20330;-95
2023/10/25 16:05:37;;;;;;;10.80;7.88;;;;;;;10.27;100.00;99086.31;6250957;22;20008;-95
2023/10/25 16:08:03;;;;;;;11.05;8.15;;;;;;;10.30;100.00;99079.34;6250562;22;19999;-95
2023/10/25 16:10:28;;;;;;;10.73;8.05;;;;;;;10.29;100.00;99080.25;6251683;22;20003;-95
2023/10/25 16:12:56;;;;;;;11.60;8.73;;;;;;;10.32;100.00;99088.03;6251082;22;20083;-96
2023/10/25 16:15:29;;;;;;;10.07;7.82;;;;;;;10.32;100.00;99088.91;6249851;22;20330;-95
2023/10/25 16:18:02;;;;;;;11.57;8.85;;;;;;;10.34;100.00;99088.94;6249813;22;20003;-96
2023/10/25 16:20:33;;;;;;;10.48;8.13;;;;;;;10.33;100.00;99085.44;6250250;22;20015;-96
2023/10/25 16:23:04;;;;;;;12.23;8.90;;;;;;;10.33;100.00;99087.19;6247113;22;20035;-96
2023/10/25 16:25:38;;;;;;;10.75;8.60;;;;;;;10.34;100.00;99091.53;6250862;22;20095;-96
2023/10/25 16:28:13;;;;;;;12.75;9.32;;;;;;;10.34;100.00;99083.72;6233496;22;20016;-96
2023/10/25 16:30:42;;;;;;;12.70;9.52;;;;;;;10.32;100.00;99090.66;6250161;22;20020;-95
2023/10/25 16:33:18;;;;;;;11.27;8.68;;;;;;;10.33;100.00;99088.03;6250119;22;20012;-95
2023/10/25 16:35:50;;;;;;;12.55;9.15;;;;;;;10.31;100.00;99087.19;6249597;22;20004;-96
2023/10/25 16:38:39;;;;;;;11.57;8.93;;;;;;;10.32;100.00;99088.91;6249774;22;20409;-96
2023/10/25 16:41:19;;;;;;;12.60;8.63;;;;;;;10.33;100.00;99095.84;6275077;22;20348;-95
2023/10/25 16:43:46;;;;;;;14.55;9.10;;;;;;;10.32;100.00;99095.84;6250135;22;20418;-96
2023/10/25 16:46:24;;;;;;;13.60;10.05;;;;;;;10.32;100.00;99103.66;6249525;22;20045;-95
2023/10/25 16:49:00;;;;;;;13.93;9.68;;;;;;;10.32;100.00;99103.66;6250006;22;20083;-96
2023/10/25 16:51:29;;;;;;;14.73;9.95;;;;;;;10.33;100.00;99105.41;6248934;22;20495;-96
2023/10/25 16:54:00;;;;;;;13.90;10.00;;;;;;;10.32;100.00;99108.88;6249487;22;20120;-95
2023/10/25 16:56:26;;;;;;;13.25;9.65;;;;;;;10.32;100.00;99108.88;6249503;22;20007;-95
2023/10/25 16:58:54;;;;;;;15.85;11.43;;;;;;;10.32;100.00;99116.69;6247846;22;20669;-95
2023/10/25 17:01:23;;;;;;;13.63;10.40;;;;;;;10.31;100.00;99122.75;6249713;22;20008;-96
2023/10/25 17:03:53;;;;;;;18.23;13.57;;;;;;;10.31;100.00;99121.03;6249143;22;20011;-95
2023/10/25 17:06:19;;;;;;;18.10;12.57;;;;;;;10.32;100.00;99119.28;6249460;22;20318;-95
2023/10/25 17:08:45;;;;;;;14.50;10.45;;;;;;;10.31;100.00;99122.75;6248031;22;20082;-95
2023/10/25 17:11:12;;;;;;;15.55;11.00;;;;;;;10.30;100.00;99128.81;6249380;22;20350;-95
2023/10/25 17:13:45;;;;;;;15.55;10.57;;;;;;;10.27;100.00;99122.75;6248680;22;20003;-95
2023/10/25 17:16:19;;;;;;;15.68;10.88;;;;;;;10.26;100.00;99125.38;6249225;22;20456;-95
2023/10/25 17:18:47;;;;;;;18.90;11.82;;;;;;;10.27;100.00;99133.19;6250268;22;20023;-95
2023/10/25 17:21:15;;;;;;;19.37;11.53;;;;;;;10.27;100.00;99134.94;6278864;22;20011;-95
2023/10/25 17:23:44;;;;;;;17.75;12.13;;;;;;;10.27;100.00;99132.31;6251128;22;20035;-96
2023/10/25 17:26:12;;;;;;;16.63;11.20;;;;;;;10.26;100.00;99141.00;6249208;22;20319;-95
2023/10/25 17:28:43;;;;;;;16.85;11.40;;;;;;;10.26;100.00;99130.56;6245909;23;20434;-96
2023/10/25 17:31:09;;;;;;;16.60;10.95;;;;;;;10.23;100.00;99141.84;6245408;23;20008;-95
2023/10/25 17:33:38;;;;;;;18.75;12.00;;;;;;;10.24;100.00;99143.59;6246748;23;20322;-96
2023/10/25 17:36:04;;;;;;;17.90;11.95;;;;;;;10.25;100.00;99150.56;6246340;23;20004;-95
2023/10/25 17:38:43;;;;;;;;;;;;;;;;;;;;;
2023/10/25 17:41:20;;;;;;;16.73;11.93;;;;;;;10.24;100.00;99154.00;6249559;22;20027;-96
2023/10/25 17:44:01;;;;;;;18.02;12.10;;;;;;;10.24;100.00;99148.81;6251400;22;20449;-96
2023/10/25 17:46:34;;;;;;;17.02;11.82;;;;;;;10.22;100.00;99157.47;6250858;22;20003;-96
2023/10/25 17:49:02;;;;;;;13.55;9.13;;;;;;;10.22;100.00;99162.69;6251277;22;20006;-96
2023/10/25 17:51:31;;;;;;;19.13;12.50;;;;;;;10.20;100.00;99156.63;6251538;22;20049;-96
2023/10/25 17:54:17;;;;;;;17.80;12.35;;;;;;;10.21;100.00;99169.63;6251666;22;20007;-96
2023/10/25 17:56:48;;;;;;;17.80;11.75;;;;;;;10.18;100.00;99161.84;6250055;22;20413;-96
2023/10/25 17:59:30;;;;;;;;;;;;;;;;;;;;;
2023/10/25 18:02:01;;;;;;;20.23;12.75;;;;;;;10.19;100.00;99173.13;6277685;22;20083;-96
2023/10/25 18:04:30;;;;;;;17.77;11.70;;;;;;;10.17;100.00;99178.31;6250914;22;20485;-95
2023/10/25 18:06:58;;;;;;;18.05;12.10;;;;;;;10.18;100.00;99182.66;6250575;22;20006;-95
2023/10/25 18:09:32;;;;;;;18.42;11.80;;;;;;;10.17;100.00;99186.13;6249839;22;20452;-96
2023/10/25 18:12:00;;;;;;;16.70;11.00;;;;;;;10.14;100.00;99183.53;6251358;22;20014;-96
2023/10/25 18:14:35;;;;;;;18.85;12.20;;;;;;;10.14;100.00;99186.13;6250992;22;20013;-96
2023/10/25 18:17:01;;;;;;;17.92;11.77;;;;;;;10.13;100.00;99189.59;6250673;22;20003;-96
2023/10/25 18:19:27;;;;;;;18.75;12.25;;;;;;;10.12;100.00;99182.66;6250386;22;20054;-96
2023/10/25 18:22:00;;;;;;;18.95;12.20;;;;;;;10.10;100.00;99184.41;6251010;22;20008;-96
2023/10/25 18:24:31;;;;;;;17.55;11.40;;;;;;;10.11;100.00;99193.97;6245757;22;20000;-96
2023/10/25 18:26:57;;;;;;;20.20;12.75;;;;;;;10.10;100.00;99193.06;6219962;23;20087;-96
2023/10/25 18:29:38;;;;;;;19.77;12.43;;;;;;;10.12;100.00;99202.63;6219792;23;20000;-95
2023/10/25 18:32:06;;;;;;;19.75;12.45;;;;;;;10.12;100.00;99200.00;6218893;23;20008;-95
2023/10/25 18:34:35;;;;;;;20.02;12.63;;;;;;;10.12;100.00;99200.88;6195282;23;20008;-95
2023/10/25 18:37:01;;;;;;;22.08;13.23;;;;;;;10.11;100.00;99204.38;6219770;23;20426;-95
2023/10/25 18:39:27;;;;;;;22.25;13.45;;;;;;;10.11;100.00;99212.16;6220685;23;20007;-96
2023/10/25 18:41:57;;;;;;;20.42;13.00;;;;;;;10.13;100.00;99222.59;6220187;23;20066;-94
2023/10/25 18:44:25;;;;;;;17.42;11.30;;;;;;;10.12;100.00;99215.63;6220811;23;20008;-95
2023/10/25 18:47:11;;;;;;;22.55;14.10;;;;;;;10.12;100.00;99224.28;6220471;23;20008;-96
2023/10/25 18:49:44;;;;;;;22.80;14.45;;;;;;;10.12;100.00;99231.25;6220810;23;20000;-96
2023/10/25 18:52:20;;;;;;;22.67;13.88;;;;;;;10.12;100.00;99236.44;6220732;23;20012;-96
2023/10/25 18:54:54;;;;;;;21.77;13.60;;;;;;;10.09;100.00;99235.59;6219311;23;20344;-95
2023/10/25 18:57:28;;;;;;;23.73;15.00;;;;;;;10.12;100.00;99239.06;6220618;23;20094;-95
2023/10/25 19:00:05;;;;;;;20.73;12.85;;;;;;;10.10;100.00;99239.06;6217654;22;20024;-96
2023/10/25 19:02:34;;;;;;;22.77;13.77;;;;;;;10.10;100.00;99244.25;6245187;23;20008;-96
2023/10/25 19:05:00;;;;;;;21.83;13.73;;;;;;;10.09;100.00;99243.41;6245659;23;20023;-96
2023/10/25 19:07:26;;;;;;;22.73;14.07;;;;;;;10.09;100.00;99252.94;6245558;23;20008;-96
2023/10/25 19:10:03;;;;;;;23.30;13.68;;;;;;;10.07;100.00;99257.28;6242792;23;20035;-96
2023/10/25 19:12:29;;;;;;;23.63;13.93;;;;;;;10.07;100.00;99259.88;6245217;23;20004;-96
2023/10/25 19:15:02;;;;;;;22.48;13.73;;;;;;;10.06;100.00;99264.19;6239975;23;20012;-95
2023/10/25 19:17:29;;;;;;;23.58;14.85;;;;;;;10.06;100.00;99260.75;6245620;23;20004;-96
2023/10/25 19:19:55;;;;;;;21.63;13.25;;;;;;;10.06;100.00;99264.19;6219646;23;20031;-95
2023/10/25 19:22:21;;;;;;;22.85;13.43;;;;;;;10.04;100.00;99265.09;6245047;23;20027;-96
2023/10/25 19:24:49;;;;;;;22.58;13.23;;;;;;;10.04;100.00;99280.69;6245211;22;20097;-96
2023/10/25 19:27:20;;;;;;;20.83;13.32;;;;;;;10.04;100.00;99278.97;6244932;23;20008;-96
2023/10/25 19:30:00;;;;;;;23.90;13.85;;;;;;;10.04;100.00;99283.31;6245381;23;20011;-96
2023/10/25 19:32:33;;;;;;;23.42;14.05;;;;;;;10.04;100.00;99293.72;6245754;23;20012;-96
2023/10/25 19:35:02;;;;;;;23.17;14.25;;;;;;;10.04;100.00;99301.53;6218935;23;20035;-96
2023/10/25 19:37:33;;;;;;;23.65;14.40;;;;;;;10.03;100.00;99294.56;6218948;23;20370;-96
2023/10/25 19:40:20;;;;;;;26.30;14.18;;;;;;;10.03;100.00;99307.59;6219443;23;20023;-95
2023/10/25 19:42:58;;;;;;;24.67;13.82;;;;;;;10.01;100.00;99307.59;6244268;23;20422;-96
2023/10/25 19:45:39;;;;;;;22.37;13.03;;;;;;;10.02;100.00;99311.03;6219514;23;20004;-96
2023/10/25 19:48:13;;;;;;;24.23;13.90;;;;;;;10.00;100.00;99313.63;6220135;23;20423;-96
2023/10/25 19:50:53;;;;;;;22.10;12.63;;;;;;;9.98;100.00;99311.91;6245027;23;20000;-96
2023/10/25 19:53:18;;;;;;;21.30;13.23;;;;;;;9.96;100.00;99318.84;6218856;23;20578;-96
2023/10/25 19:55:54;;;;;;;23.35;13.52;;;;;;;9.94;100.00;99326.66;6244185;23;20008;-96
2023/10/25 19:58:28;;;;;;;21.10;12.68;;;;;;;9.93;100.00;99324.91;6219404;23;19996;-96
2023/10/25 20:01:20;;;;;;;22.73;12.82;;;;;;;9.92;100.00;99329.25;6219208;23;20086;-96
2023/10/25 20:03:59;;;;;;;19.95;12.07;;;;;;;9.92;100.00;99337.06;6219991;23;20031;-96
2023/10/25 20:06:40;;;;;;;19.95;11.77;;;;;;;9.92;100.00;99342.25;6244850;22;20012;-96
2023/10/25 20:09:05;;;;;;;18.80;11.32;;;;;;;9.90;100.00;99341.38;6218656;23;19992;-95
2023/10/25 20:11:31;;;;;;;19.40;11.73;;;;;;;9.89;100.00;99349.19;6244292;23;20004;-95
2023/10/25 20:13:59;;;;;;;18.38;10.90;;;;;;;9.90;100.00;99345.72;6216622;23;20062;-95
2023/10/25 20:16:29;;;;;;;19.05;11.50;;;;;;;9.88;100.00;99350.91;6244298;23;20050;-95
2023/10/25 20:18:55;;;;;;;17.63;10.73;;;;;;;9.88;100.00;99363.94;6217794;23;20036;-95
2023/10/25 20:21:21;;;;;;;17.70;10.02;;;;;;;9.87;100.00;99363.94;6219649;23;20007;-96
2023/10/25 20:24:00;;;;;;;18.30;10.63;;;;;;;9.87;100.00;99367.38;6244172;22;20000;-94
2023/10/25 20:26:46;;;;;;;18.35;10.35;;;;;;;9.85;100.00;99371.72;6245060;23;20006;-96
2023/10/25 20:29:14;;;;;;;19.20;11.07;;;;;;;9.86;100.00;99376.06;6218587;23;20004;-96
2023/10/25 20:31:40;;;;;;;17.60;10.38;;;;;;;9.86;100.00;99375.19;6244326;23;20008;-95
2023/10/25 20:34:14;;;;;;;18.42;10.80;;;;;;;9.86;100.00;99372.59;6244649;23;20430;-96
2023/10/25 20:36:45;;;;;;;19.42;11.35;;;;;;;9.86;100.00;99380.41;6244725;23;20449;-96
2023/10/25 20:39:11;;;;;;;20.30;12.10;;;;;;;9.84;100.00;99383.00;6243714;23;20032;-96
2023/10/25 20:41:39;;;;;;;19.88;11.57;;;;;;;9.84;100.00;99383.00;6219875;23;20034;-96
2023/10/25 20:44:12;;;;;;;20.92;12.55;;;;;;;9.87;100.00;99387.34;6244637;23;20004;-96
2023/10/25 20:46:53;;;;;;;20.27;12.10;;;;;;;9.86;100.00;99388.19;6218923;23;20513;-96
2023/10/25 20:49:27;;;;;;;22.92;12.93;;;;;;;9.86;100.00;99386.50;6219573;23;20075;-95
2023/10/25 20:51:52;;;;;;;21.27;12.57;;;;;;;9.86;100.00;99388.19;6219548;23;20008;-96
2023/10/25 20:54:26;;;;;;;22.20;13.50;;;;;;;9.84;100.00;99393.41;6245909;23;20008;-96
2023/10/25 20:56:54;;;;;;;20.40;12.57;;;;;;;9.83;100.00;99394.25;6246224;23;20458;-96
2023/10/25 20:59:30;;;;;;;21.45;12.50;;;;;;;9.84;100.00;99393.41;6247122;23;20001;-96
2023/10/25 21:01:58;;;;;;;21.75;13.10;;;;;;;9.86;100.00;99403.81;6221470;23;20039;-96
2023/10/25 21:04:26;;;;;;;22.77;13.30;;;;;;;9.84;100.00;99411.59;6220546;23;20028;-96
2023/10/25 21:07:01;;;;;;;22.27;13.05;;;;;;;9.84;100.00;99416.81;6221251;23;20037;-96
2023/10/25 21:09:49;;;;;;;23.58;13.35;;;;;;;9.86;100.00;99425.50;6220020;23;20034;-96
2023/10/25 21:12:24;;;;;;;22.88;12.82;;;;;;;9.85;100.00;99420.31;6247336;22;20004;-96
2023/10/25 21:15:01;;;;;;;24.00;13.60;;;;;;;9.85;100.00;99428.09;6247080;23;20012;-96
2023/10/25 21:17:52;;;;;;;23.90;13.20;;;;;;;9.84;100.00;99424.63;6222929;23;20434;-96
2023/10/25 21:20:43;;;;;;;21.48;13.13;;;;;;;9.84;100.00;99429.81;6224067;23;20070;-96
2023/10/25 21:23:08;;;;;;;23.95;13.00;;;;;;;9.84;100.00;99429.81;6236403;22;20012;-96
2023/10/25 21:26:01;;;;;;;23.45;13.93;;;;;;;9.85;100.00;99430.72;6246633;23;20004;-96
2023/10/25 21:28:46;;;;;;;24.80;14.02;;;;;;;9.85;100.00;99443.72;6247605;23;20004;-96
2023/10/25 21:32:02;;;;;;;23.85;13.35;;;;;;;9.87;100.00;99448.03;6218244;23;20004;-96
2023/10/25 21:34:30;;;;;;;24.67;14.40;;;;;;;9.82;100.00;99447.16;6246561;23;20338;-96
2023/10/25 21:37:01;;;;;;;25.85;14.50;;;;;;;9.82;100.00;99449.78;6220359;23;20000;-96
2023/10/25 21:39:30;;;;;;;27.63;15.02;;;;;;;9.83;100.00;99448.88;6246009;23;20518;-96
2023/10/25 21:42:02;;;;;;;26.55;14.45;;;;;;;9.83;100.00;99459.28;6222941;23;20180;-96
2023/10/25 21:44:33;;;;;;;28.00;15.25;;;;;;;9.83;100.00;99463.63;6220829;23;20011;-96
2023/10/25 21:47:02;;;;;;;26.92;15.50;;;;;;;9.84;100.00;99466.25;6245661;23;20004;-96
2023/10/25 21:49:38;;;;;;;24.53;14.27;;;;;;;9.86;100.00;99479.25;6243765;23;20099;-96
2023/10/25 21:52:07;;;;;;;26.35;14.85;;;;;;;9.83;100.00;99479.25;6243782;23;20008;-96
2023/10/25 21:54:33;;;;;;;;;;;;;;;9.89;100.00;99490.56;6209915;23;20027;-96
2023/10/25 21:57:01;;;;;;;25.23;13.85;;;;;;;9.84;100.00;99486.19;6249095;22;19903;-96
2023/10/25 21:59:26;;;;;;;26.45;15.43;;;;;;;9.83;100.00;99489.66;6248605;22;20422;-96
2023/10/25 22:01:54;;;;;;;27.38;15.85;;;;;;;9.82;100.00;99486.19;6249122;22;20020;-96
2023/10/25 22:04:24;;;;;;;25.00;14.75;;;;;;;9.80;100.00;99495.69;6248327;22;20039;-96
2023/10/25 22:06:59;;;;;;;26.25;14.88;;;;;;;9.80;100.00;99494.84;6248650;22;20462;-95
2023/10/25 22:09:32;;;;;;;25.35;14.43;;;;;;;9.77;100.00;99498.28;6249459;22;20082;-96
2023/10/25 22:12:01;;;;;;;28.83;15.13;;;;;;;9.77;100.00;99500.88;6249659;22;20056;-96
2023/10/25 22:14:31;;;;;;;26.27;16.20;;;;;;;9.77;100.00;99494.84;6261076;22;20000;-96
2023/10/25 22:17:00;;;;;;;23.23;13.68;;;;;;;9.77;100.00;99495.69;6260105;22;20083;-96